SAS268 ENBR-ENGM
Flight info
| Callsign | SAS268 |
|---|---|
| Flight time | 0h 32m |
| Altitude | 31000 |
| Route | GOKAB DCT ULVAN DCT ADOPI |
| Aircraft | A319/M-SDE3FGHIRWY/LB1 |
Departure
| Time | 2026-05-07 12:59 |
|---|---|
| Airport | Bergen Airport, Flesland (ENBR) |
Arrival
| Time | 2026-05-07 13:32 |
|---|---|
| Airport | Oslo-Gardermoen International Airport (ENGM) |
| Time | Latitude | Longitude | Altitude | Speed | Heading |
|---|---|---|---|---|---|
| 2026-05-07 12:44 | 60.28701 | 5.22926 | 173 ft | 0 kts | 80° |
| 2026-05-07 12:48 | 60.28700 | 5.22922 | 173 ft | 1 kts | 80° |
| 2026-05-07 12:49 | 60.28697 | 5.22888 | 173 ft | 3 kts | 80° |
| 2026-05-07 12:49 | 60.28694 | 5.22847 | 173 ft | 3 kts | 80° |
| 2026-05-07 12:49 | 60.28692 | 5.22820 | 173 ft | 1 kts | 80° |
| 2026-05-07 12:49 | 60.28692 | 5.22819 | 173 ft | 0 kts | 80° |
| 2026-05-07 12:55 | 60.28701 | 5.22822 | 173 ft | 3 kts | 337° |
| 2026-05-07 12:55 | 60.28720 | 5.22651 | 169 ft | 22 kts | 261° |
| 2026-05-07 12:56 | 60.28697 | 5.22357 | 164 ft | 12 kts | 315° |
| 2026-05-07 12:56 | 60.28795 | 5.22322 | 162 ft | 21 kts | 350° |
| 2026-05-07 12:56 | 60.28962 | 5.22267 | 162 ft | 27 kts | 350° |
| 2026-05-07 12:56 | 60.29154 | 5.22203 | 163 ft | 29 kts | 351° |
| 2026-05-07 12:57 | 60.29367 | 5.22134 | 159 ft | 33 kts | 350° |
| 2026-05-07 12:57 | 60.29592 | 5.22056 | 150 ft | 32 kts | 351° |
| 2026-05-07 12:57 | 60.29810 | 5.21982 | 149 ft | 29 kts | 350° |
| 2026-05-07 12:57 | 60.30000 | 5.21919 | 157 ft | 25 kts | 351° |
| 2026-05-07 12:58 | 60.30048 | 5.21784 | 160 ft | 13 kts | 261° |
| 2026-05-07 12:58 | 60.30032 | 5.21604 | 162 ft | 10 kts | 253° |
| 2026-05-07 12:58 | 60.30012 | 5.21592 | 162 ft | 0 kts | 172° |
| 2026-05-07 12:58 | 60.30009 | 5.21593 | 162 ft | 3 kts | 172° |
| 2026-05-07 12:59 | 60.29810 | 5.21658 | 155 ft | 62 kts | 171° |
| 2026-05-07 12:59 | 60.29172 | 5.21872 | 161 ft | 121 kts | 171° |
| 2026-05-07 12:59 | 60.28191 | 5.22202 | 354 ft | 151 kts | 173° |
| 2026-05-07 12:59 | 60.27172 | 5.22549 | 1143 ft | 149 kts | 173° |
| 2026-05-07 13:00 | 60.26138 | 5.22883 | 1824 ft | 153 kts | 169° |
| 2026-05-07 13:00 | 60.25172 | 5.23776 | 2426 ft | 160 kts | 136° |
| 2026-05-07 13:00 | 60.24770 | 5.25965 | 2764 ft | 187 kts | 83° |
| 2026-05-07 13:00 | 60.25246 | 5.28521 | 3350 ft | 205 kts | 64° |
| 2026-05-07 13:01 | 60.25834 | 5.31317 | 3726 ft | 230 kts | 72° |
| 2026-05-07 13:01 | 60.26355 | 5.34554 | 4314 ft | 254 kts | 74° |
| 2026-05-07 13:01 | 60.26876 | 5.38028 | 5303 ft | 263 kts | 75° |
| 2026-05-07 13:01 | 60.27414 | 5.41617 | 5820 ft | 270 kts | 74° |
| 2026-05-07 13:02 | 60.27959 | 5.45195 | 6132 ft | 273 kts | 74° |
| 2026-05-07 13:02 | 60.28529 | 5.48860 | 7111 ft | 275 kts | 73° |
| 2026-05-07 13:02 | 60.29114 | 5.52569 | 8065 ft | 280 kts | 73° |
| 2026-05-07 13:02 | 60.29714 | 5.56345 | 8991 ft | 287 kts | 73° |
| 2026-05-07 13:03 | 60.30329 | 5.60213 | 9919 ft | 293 kts | 73° |
| 2026-05-07 13:03 | 60.30966 | 5.64215 | 10527 ft | 310 kts | 73° |
| 2026-05-07 13:03 | 60.31648 | 5.68514 | 10877 ft | 333 kts | 73° |
| 2026-05-07 13:03 | 60.32365 | 5.73046 | 11488 ft | 344 kts | 73° |
| 2026-05-07 13:04 | 60.33100 | 5.77695 | 12269 ft | 350 kts | 73° |
| 2026-05-07 13:04 | 60.33844 | 5.82407 | 13052 ft | 355 kts | 73° |
| 2026-05-07 13:04 | 60.34598 | 5.87200 | 13836 ft | 361 kts | 73° |
| 2026-05-07 13:04 | 60.35358 | 5.92068 | 14535 ft | 366 kts | 72° |
| 2026-05-07 13:05 | 60.36128 | 5.97011 | 15182 ft | 372 kts | 72° |
| 2026-05-07 13:05 | 60.36910 | 6.02037 | 15822 ft | 378 kts | 72° |
| 2026-05-07 13:05 | 60.37701 | 6.07141 | 16482 ft | 383 kts | 72° |
| 2026-05-07 13:05 | 60.38502 | 6.12323 | 17126 ft | 389 kts | 72° |
| 2026-05-07 13:06 | 60.39313 | 6.17589 | 17766 ft | 395 kts | 71° |
| 2026-05-07 13:06 | 60.40132 | 6.22924 | 18410 ft | 400 kts | 71° |
| 2026-05-07 13:06 | 60.40958 | 6.28340 | 18973 ft | 405 kts | 71° |
| 2026-05-07 13:06 | 60.41792 | 6.33818 | 19542 ft | 410 kts | 71° |
| 2026-05-07 13:07 | 60.42622 | 6.39386 | 20114 ft | 416 kts | 74° |
| 2026-05-07 13:07 | 60.43134 | 6.45185 | 20693 ft | 422 kts | 84° |
| 2026-05-07 13:07 | 60.43175 | 6.51148 | 21243 ft | 426 kts | 94° |
| 2026-05-07 13:07 | 60.43001 | 6.57175 | 21801 ft | 431 kts | 94° |
| 2026-05-07 13:08 | 60.42831 | 6.63189 | 22324 ft | 436 kts | 93° |
| 2026-05-07 13:08 | 60.42659 | 6.69336 | 22867 ft | 440 kts | 93° |
| 2026-05-07 13:08 | 60.42485 | 6.75570 | 23399 ft | 445 kts | 93° |
| 2026-05-07 13:08 | 60.42305 | 6.81846 | 23894 ft | 450 kts | 93° |
| 2026-05-07 13:09 | 60.42118 | 6.88215 | 24322 ft | 454 kts | 93° |
| 2026-05-07 13:09 | 60.41926 | 6.94625 | 24764 ft | 458 kts | 93° |
| 2026-05-07 13:09 | 60.41729 | 7.01078 | 25214 ft | 462 kts | 93° |
| 2026-05-07 13:09 | 60.41532 | 7.07583 | 25637 ft | 465 kts | 93° |
| 2026-05-07 13:10 | 60.41333 | 7.14148 | 26033 ft | 469 kts | 93° |
| 2026-05-07 13:10 | 60.41195 | 7.18517 | 26329 ft | 471 kts | 93° |
| 2026-05-07 13:10 | 60.40982 | 7.25153 | 26757 ft | 475 kts | 93° |
| 2026-05-07 13:10 | 60.40764 | 7.31834 | 27175 ft | 478 kts | 94° |
| 2026-05-07 13:11 | 60.40541 | 7.38570 | 27599 ft | 482 kts | 94° |
| 2026-05-07 13:11 | 60.40313 | 7.45363 | 28025 ft | 486 kts | 94° |
| 2026-05-07 13:11 | 60.40079 | 7.52211 | 28444 ft | 490 kts | 94° |
| 2026-05-07 13:11 | 60.39840 | 7.59103 | 28840 ft | 493 kts | 94° |
| 2026-05-07 13:12 | 60.39598 | 7.66044 | 29233 ft | 497 kts | 94° |
| 2026-05-07 13:12 | 60.39348 | 7.73034 | 29618 ft | 500 kts | 94° |
| 2026-05-07 13:12 | 60.39094 | 7.80065 | 29998 ft | 503 kts | 94° |
| 2026-05-07 13:12 | 60.38834 | 7.87145 | 30340 ft | 507 kts | 94° |
| 2026-05-07 13:13 | 60.38567 | 7.94269 | 30647 ft | 510 kts | 94° |
| 2026-05-07 13:13 | 60.38294 | 8.01423 | 31045 ft | 507 kts | 94° |
| 2026-05-07 13:13 | 60.38024 | 8.08427 | 31137 ft | 492 kts | 94° |
| 2026-05-07 13:13 | 60.37759 | 8.15213 | 31112 ft | 478 kts | 94° |
| 2026-05-07 13:14 | 60.37496 | 8.21851 | 30593 ft | 475 kts | 94° |
| 2026-05-07 13:14 | 60.37228 | 8.28553 | 29041 ft | 495 kts | 94° |
| 2026-05-07 13:14 | 60.36946 | 8.35593 | 27105 ft | 509 kts | 94° |
| 2026-05-07 13:14 | 60.36655 | 8.42838 | 25024 ft | 523 kts | 94° |
| 2026-05-07 13:15 | 60.36356 | 8.50148 | 24127 ft | 519 kts | 94° |
| 2026-05-07 13:15 | 60.36059 | 8.57268 | 23860 ft | 500 kts | 95° |
| 2026-05-07 13:15 | 60.35763 | 8.64163 | 23606 ft | 484 kts | 95° |
| 2026-05-07 13:15 | 60.35472 | 8.70830 | 23316 ft | 469 kts | 95° |
| 2026-05-07 13:16 | 60.35187 | 8.77294 | 23020 ft | 455 kts | 95° |
| 2026-05-07 13:16 | 60.34905 | 8.83578 | 22742 ft | 444 kts | 95° |
| 2026-05-07 13:16 | 60.34627 | 8.89726 | 22374 ft | 436 kts | 95° |
| 2026-05-07 13:16 | 60.34352 | 8.95811 | 21829 ft | 434 kts | 95° |
| 2026-05-07 13:17 | 60.34079 | 9.01864 | 21307 ft | 431 kts | 95° |
| 2026-05-07 13:17 | 60.33805 | 9.07869 | 20780 ft | 428 kts | 95° |
| 2026-05-07 13:17 | 60.33528 | 9.13839 | 20260 ft | 425 kts | 95° |
| 2026-05-07 13:17 | 60.33251 | 9.19752 | 19754 ft | 422 kts | 96° |
| 2026-05-07 13:18 | 60.32972 | 9.25617 | 19250 ft | 418 kts | 96° |
| 2026-05-07 13:18 | 60.32695 | 9.31420 | 18759 ft | 414 kts | 96° |
| 2026-05-07 13:18 | 60.32571 | 9.37196 | 18266 ft | 410 kts | 86° |
| 2026-05-07 13:18 | 60.32989 | 9.42850 | 17696 ft | 404 kts | 74° |
| 2026-05-07 13:19 | 60.33738 | 9.48269 | 17155 ft | 399 kts | 73° |
| 2026-05-07 13:19 | 60.34482 | 9.53629 | 16613 ft | 394 kts | 73° |
| 2026-05-07 13:19 | 60.35208 | 9.58925 | 16077 ft | 389 kts | 73° |
| 2026-05-07 13:19 | 60.35795 | 9.64226 | 15557 ft | 385 kts | 83° |
| 2026-05-07 13:20 | 60.35966 | 9.69592 | 15048 ft | 381 kts | 86° |
| 2026-05-07 13:20 | 60.36116 | 9.74892 | 14542 ft | 376 kts | 86° |
| 2026-05-07 13:20 | 60.36264 | 9.80148 | 14046 ft | 372 kts | 86° |
| 2026-05-07 13:20 | 60.36407 | 9.85337 | 13517 ft | 368 kts | 86° |
| 2026-05-07 13:21 | 60.36547 | 9.90467 | 12971 ft | 364 kts | 86° |
| 2026-05-07 13:21 | 60.36682 | 9.95470 | 12439 ft | 360 kts | 86° |
| 2026-05-07 13:21 | 60.36812 | 10.00470 | 12043 ft | 353 kts | 86° |
| 2026-05-07 13:21 | 60.36936 | 10.05433 | 11719 ft | 344 kts | 86° |
| 2026-05-07 13:22 | 60.37052 | 10.10130 | 11413 ft | 336 kts | 86° |
| 2026-05-07 13:22 | 60.37164 | 10.14803 | 11097 ft | 329 kts | 87° |
| 2026-05-07 13:22 | 60.37272 | 10.19369 | 10798 ft | 323 kts | 87° |
| 2026-05-07 13:22 | 60.37378 | 10.23865 | 10492 ft | 318 kts | 87° |
| 2026-05-07 13:23 | 60.37482 | 10.28294 | 10190 ft | 314 kts | 87° |
| 2026-05-07 13:23 | 60.37584 | 10.32671 | 9885 ft | 309 kts | 87° |
| 2026-05-07 13:23 | 60.37685 | 10.36983 | 9549 ft | 305 kts | 87° |
| 2026-05-07 13:23 | 60.37782 | 10.41222 | 9220 ft | 300 kts | 87° |
| 2026-05-07 13:24 | 60.37875 | 10.45393 | 8897 ft | 297 kts | 87° |
| 2026-05-07 13:24 | 60.37968 | 10.49546 | 8577 ft | 294 kts | 87° |
| 2026-05-07 13:24 | 60.38057 | 10.53673 | 8248 ft | 292 kts | 87° |
| 2026-05-07 13:24 | 60.38143 | 10.57746 | 7937 ft | 289 kts | 87° |
| 2026-05-07 13:25 | 60.38228 | 10.61805 | 7619 ft | 288 kts | 87° |
| 2026-05-07 13:25 | 60.38314 | 10.65837 | 7299 ft | 286 kts | 87° |
| 2026-05-07 13:25 | 60.38397 | 10.69833 | 6982 ft | 284 kts | 87° |
| 2026-05-07 13:25 | 60.38477 | 10.73811 | 6662 ft | 282 kts | 88° |
| 2026-05-07 13:26 | 60.38556 | 10.77791 | 6223 ft | 284 kts | 87° |
| 2026-05-07 13:26 | 60.38634 | 10.81797 | 5782 ft | 286 kts | 87° |
| 2026-05-07 13:26 | 60.38708 | 10.85753 | 5639 ft | 277 kts | 88° |
| 2026-05-07 13:26 | 60.38588 | 10.89596 | 5513 ft | 271 kts | 96° |
| 2026-05-07 13:27 | 60.38392 | 10.93352 | 5378 ft | 264 kts | 97° |
| 2026-05-07 13:27 | 60.37973 | 10.96849 | 5223 ft | 249 kts | 110° |
| 2026-05-07 13:27 | 60.37234 | 10.99921 | 5069 ft | 238 kts | 123° |
| 2026-05-07 13:27 | 60.36268 | 11.02460 | 4993 ft | 216 kts | 134° |
| 2026-05-07 13:28 | 60.35223 | 11.04378 | 5029 ft | 188 kts | 142° |
| 2026-05-07 13:28 | 60.34282 | 11.05977 | 4882 ft | 173 kts | 141° |
| 2026-05-07 13:28 | 60.33368 | 11.07590 | 4370 ft | 178 kts | 139° |
| 2026-05-07 13:28 | 60.32409 | 11.09218 | 3776 ft | 183 kts | 142° |
| 2026-05-07 13:29 | 60.31410 | 11.10806 | 3250 ft | 183 kts | 144° |
| 2026-05-07 13:29 | 60.30265 | 11.11821 | 2839 ft | 176 kts | 163° |
| 2026-05-07 13:29 | 60.29151 | 11.12422 | 2591 ft | 155 kts | 171° |
| 2026-05-07 13:29 | 60.28131 | 11.12592 | 2261 ft | 144 kts | 180° |
| 2026-05-07 13:30 | 60.27152 | 11.12366 | 1931 ft | 137 kts | 194° |
| 2026-05-07 13:30 | 60.26249 | 11.11840 | 1635 ft | 132 kts | 199° |
| 2026-05-07 13:30 | 60.25361 | 11.11312 | 1459 ft | 133 kts | 197° |
| 2026-05-07 13:30 | 60.24468 | 11.10807 | 1251 ft | 133 kts | 195° |
| 2026-05-07 13:31 | 60.23574 | 11.10303 | 1117 ft | 135 kts | 196° |
| 2026-05-07 13:31 | 60.22676 | 11.09783 | 939 ft | 135 kts | 197° |
| 2026-05-07 13:31 | 60.21771 | 11.09261 | 763 ft | 135 kts | 197° |
| 2026-05-07 13:31 | 60.20902 | 11.08761 | 680 ft | 116 kts | 195° |
| 2026-05-07 13:32 | 60.20262 | 11.08390 | 677 ft | 75 kts | 196° |
| 2026-05-07 13:32 | 60.19968 | 11.08297 | 674 ft | 23 kts | 166° |
| 2026-05-07 13:32 | 60.19893 | 11.08433 | 675 ft | 10 kts | 107° |
| 2026-05-07 13:32 | 60.19875 | 11.08567 | 679 ft | 9 kts | 106° |
| 2026-05-07 13:33 | 60.19854 | 11.08718 | 679 ft | 13 kts | 105° |
| 2026-05-07 13:33 | 60.19825 | 11.08917 | 679 ft | 16 kts | 106° |
| 2026-05-07 13:33 | 60.19796 | 11.09120 | 683 ft | 15 kts | 106° |
| 2026-05-07 13:33 | 60.19764 | 11.09342 | 681 ft | 18 kts | 106° |
| 2026-05-07 13:34 | 60.19731 | 11.09569 | 682 ft | 15 kts | 110° |
| 2026-05-07 13:34 | 60.19588 | 11.09690 | 685 ft | 10 kts | 200° |
| 2026-05-07 13:34 | 60.19534 | 11.09656 | 685 ft | 5 kts | 195° |
| 2026-05-07 13:35 | 60.19527 | 11.09652 | 685 ft | 0 kts | 195° |